createdAt,value
2022-08-24T00:01:43.949Z,38.20
2022-08-24T00:07:04.140Z,38.20
2022-08-24T00:12:24.911Z,38.20
2022-08-24T00:17:45.096Z,38.30
2022-08-24T00:23:05.295Z,38.30
2022-08-24T00:28:25.489Z,38.20
2022-08-24T00:33:45.663Z,38.30
2022-08-24T00:39:05.852Z,38.30
2022-08-24T00:44:26.044Z,38.30
2022-08-24T00:49:46.245Z,38.40
2022-08-24T00:55:06.365Z,38.50
2022-08-24T01:00:26.400Z,38.40
2022-08-24T01:05:46.551Z,38.40
2022-08-24T01:11:08.243Z,38.50
2022-08-24T01:16:28.456Z,38.40
2022-08-24T01:21:49.700Z,38.50
2022-08-24T01:27:09.939Z,38.60
2022-08-24T01:32:30.047Z,38.60
2022-08-24T01:37:50.039Z,38.60
2022-08-24T01:43:10.289Z,38.70
2022-08-24T01:48:30.520Z,38.60
2022-08-24T01:53:50.812Z,38.60
2022-08-24T01:59:10.980Z,38.60
2022-08-24T02:04:31.236Z,38.60
2022-08-24T02:09:51.235Z,38.70
2022-08-24T02:15:11.601Z,38.70
2022-08-24T02:20:31.779Z,38.80
2022-08-24T02:25:51.879Z,38.70
2022-08-24T02:31:12.111Z,38.60
2022-08-24T02:36:32.307Z,38.70
2022-08-24T02:41:52.494Z,38.70
2022-08-24T02:47:12.550Z,38.70
2022-08-24T02:52:32.833Z,38.70
2022-08-24T02:57:52.830Z,38.80
2022-08-24T03:03:12.854Z,38.80
2022-08-24T03:08:34.661Z,38.80
2022-08-24T03:13:55.696Z,38.80
2022-08-24T03:19:16.017Z,38.80
2022-08-24T03:24:36.183Z,38.80
2022-08-24T03:29:56.286Z,38.80
2022-08-24T03:35:16.947Z,38.80
2022-08-24T03:40:37.137Z,38.80
2022-08-24T03:45:57.254Z,38.80
2022-08-24T03:51:17.362Z,38.80
2022-08-24T03:56:37.569Z,38.80
2022-08-24T04:01:57.888Z,38.80
2022-08-24T04:07:18.050Z,38.90
2022-08-24T04:12:38.271Z,38.90
2022-08-24T04:17:58.299Z,38.80
2022-08-24T04:23:18.496Z,38.90
2022-08-24T04:28:38.636Z,38.90
2022-08-24T04:33:58.788Z,38.90
2022-08-24T04:39:18.992Z,38.90
2022-08-24T04:44:39.233Z,38.90
2022-08-24T04:49:59.195Z,38.90
2022-08-24T04:55:19.293Z,38.90
2022-08-24T05:00:39.593Z,38.80
2022-08-24T05:05:59.532Z,38.90
2022-08-24T05:11:19.714Z,38.80
2022-08-24T05:16:39.935Z,38.80
2022-08-24T05:22:05.775Z,38.80
2022-08-24T05:27:25.875Z,38.90
2022-08-24T05:32:45.901Z,38.80
2022-08-24T05:38:06.179Z,38.90
2022-08-24T05:43:26.270Z,38.90
2022-08-24T05:48:50.012Z,38.80
2022-08-24T05:54:13.286Z,38.80
2022-08-24T05:59:33.531Z,38.80
2022-08-24T06:04:53.787Z,38.80
2022-08-24T06:10:35.333Z,38.80
2022-08-24T06:16:17.827Z,38.70
2022-08-24T06:21:33.520Z,38.80
2022-08-24T06:26:53.457Z,38.80
2022-08-24T06:32:13.665Z,38.70
2022-08-24T06:37:33.776Z,38.70
2022-08-24T06:42:53.967Z,38.80
2022-08-24T06:48:14.045Z,38.70
2022-08-24T06:53:34.180Z,38.70
2022-08-24T06:58:54.313Z,38.70
2022-08-24T07:04:14.594Z,38.70
2022-08-24T07:09:34.718Z,38.70
2022-08-24T07:14:54.902Z,38.70
2022-08-24T07:20:15.036Z,38.70
2022-08-24T07:25:35.261Z,38.60
2022-08-24T07:30:55.514Z,38.60
2022-08-24T07:36:21.987Z,38.60
2022-08-24T07:42:02.711Z,38.60
2022-08-24T07:47:43.048Z,38.50
2022-08-24T07:53:03.073Z,38.40
2022-08-24T07:58:23.235Z,38.30
2022-08-24T08:03:44.501Z,38.30
2022-08-24T08:09:05.475Z,38.30
2022-08-24T08:14:25.491Z,38.30
2022-08-24T08:19:45.602Z,38.80
2022-08-24T08:25:05.808Z,38.20
2022-08-24T08:30:25.987Z,38.20
2022-08-24T08:35:46.120Z,38.10
2022-08-24T08:41:06.479Z,37.80
2022-08-24T08:46:27.261Z,36.70
2022-08-24T08:51:47.445Z,36.60
2022-08-24T08:57:07.552Z,36.80
2022-08-24T09:02:32.333Z,36.60
2022-08-24T09:07:55.597Z,36.50
2022-08-24T09:13:16.274Z,36.40
2022-08-24T09:18:36.512Z,36.70
2022-08-24T09:23:56.491Z,36.30
2022-08-24T09:29:16.607Z,36.40
2022-08-24T09:34:38.135Z,36.00
2022-08-24T09:39:58.404Z,35.80
2022-08-24T09:45:18.508Z,35.80
2022-08-24T09:50:38.911Z,35.80
2022-08-24T09:55:58.973Z,35.70
2022-08-24T10:01:19.254Z,35.70
2022-08-24T10:06:39.423Z,35.50
2022-08-24T10:11:59.639Z,35.50
2022-08-24T10:17:19.725Z,35.60
2022-08-24T10:22:39.945Z,35.60
2022-08-24T10:28:00.435Z,35.50
2022-08-24T10:33:20.672Z,35.50
2022-08-24T10:38:40.877Z,35.30
2022-08-24T10:44:00.983Z,35.20
2022-08-24T10:49:21.110Z,35.20
2022-08-24T10:54:41.364Z,35.10
2022-08-24T11:00:01.607Z,34.90
2022-08-24T11:05:21.724Z,34.90
2022-08-24T11:10:41.912Z,34.80
2022-08-24T11:16:02.206Z,34.80
2022-08-24T11:21:22.331Z,34.60
2022-08-24T11:26:42.540Z,34.70
2022-08-24T11:32:02.618Z,34.60
2022-08-24T11:37:24.441Z,34.70
2022-08-24T11:42:45.345Z,34.60
2022-08-24T11:48:05.597Z,34.40
2022-08-24T11:53:25.491Z,34.50
2022-08-24T11:58:45.740Z,34.50
2022-08-24T12:04:05.878Z,34.50
2022-08-24T12:09:26.130Z,34.10
2022-08-24T12:14:46.430Z,33.70
2022-08-24T12:20:06.655Z,33.70
2022-08-24T12:25:26.712Z,33.70
2022-08-24T12:30:46.983Z,33.50
2022-08-24T12:36:07.035Z,33.30
2022-08-24T12:41:27.289Z,33.30
2022-08-24T12:46:47.603Z,33.20
2022-08-24T12:52:07.615Z,33.10
2022-08-24T12:57:27.738Z,33.20
2022-08-24T13:02:48.660Z,33.20
2022-08-24T13:08:08.624Z,33.00
2022-08-24T13:13:28.719Z,32.90
2022-08-24T13:18:48.771Z,32.70
2022-08-24T13:24:08.997Z,32.70
2022-08-24T13:29:29.226Z,32.50
2022-08-24T13:34:49.422Z,32.60
2022-08-24T13:40:09.891Z,32.30
2022-08-24T13:45:30.170Z,32.20
2022-08-24T13:50:50.292Z,32.20
2022-08-24T13:56:10.533Z,32.20
2022-08-24T14:01:30.820Z,32.30
2022-08-24T14:06:51.033Z,32.10
2022-08-24T14:12:11.310Z,32.00
2022-08-24T14:17:35.516Z,32.00
2022-08-24T14:22:56.191Z,31.80
2022-08-24T14:28:16.472Z,31.80
2022-08-24T14:33:36.606Z,31.80
2022-08-24T14:38:56.757Z,31.70
2022-08-24T14:44:16.863Z,31.70
2022-08-24T14:49:36.962Z,31.60
2022-08-24T14:54:57.091Z,31.70
2022-08-24T15:00:17.325Z,31.80
2022-08-24T15:05:37.467Z,31.70
2022-08-24T15:10:57.644Z,31.50
2022-08-24T15:16:17.797Z,31.30
2022-08-24T15:21:37.878Z,31.00
2022-08-24T15:26:57.967Z,31.10
2022-08-24T15:32:18.055Z,31.20
2022-08-24T15:37:38.574Z,31.30
2022-08-24T15:42:58.915Z,31.30
2022-08-24T15:48:19.013Z,31.20
2022-08-24T15:53:39.564Z,31.30
2022-08-24T15:58:59.655Z,31.30
2022-08-24T16:04:19.764Z,31.30
2022-08-24T16:09:39.892Z,31.30
2022-08-24T16:15:00.184Z,31.40
2022-08-24T16:20:20.306Z,31.60
2022-08-24T16:25:44.081Z,31.50
2022-08-24T16:31:07.981Z,31.50
2022-08-24T16:36:28.177Z,31.30
2022-08-24T16:41:48.419Z,31.50
2022-08-24T16:47:08.605Z,31.30
2022-08-24T16:52:28.945Z,31.40
2022-08-24T16:57:49.116Z,31.30
2022-08-24T17:03:12.900Z,31.40
2022-08-24T17:08:34.716Z,32.00
2022-08-24T17:13:54.793Z,31.40
2022-08-24T17:19:15.634Z,31.40
2022-08-24T17:24:37.329Z,32.30
2022-08-24T17:29:57.496Z,32.30
2022-08-24T17:35:17.667Z,31.60
2022-08-24T17:40:37.843Z,31.50
2022-08-24T17:45:58.094Z,31.40
2022-08-24T17:51:18.276Z,31.20
2022-08-24T17:56:40.033Z,31.30
2022-08-24T18:02:01.232Z,31.30
2022-08-24T18:07:35.860Z,31.60
2022-08-24T18:13:01.672Z,32.30
2022-08-24T18:18:22.888Z,32.20
2022-08-24T18:23:43.915Z,32.40
2022-08-24T18:29:04.229Z,32.30
2022-08-24T18:34:24.856Z,32.30
2022-08-24T18:39:45.093Z,32.50
2022-08-24T18:45:05.170Z,32.70
2022-08-24T18:50:25.246Z,32.80
2022-08-24T18:55:45.696Z,32.70
2022-08-24T19:01:05.917Z,32.70
2022-08-24T19:06:25.987Z,32.60
2022-08-24T19:11:46.143Z,32.70
2022-08-24T19:17:06.319Z,32.50
2022-08-24T19:22:26.496Z,32.80
2022-08-24T19:27:50.599Z,32.90
2022-08-24T19:33:14.400Z,32.70
2022-08-24T19:38:34.450Z,32.80
2022-08-24T19:43:54.733Z,32.80
2022-08-24T19:49:14.788Z,32.80
2022-08-24T19:54:34.932Z,32.90
2022-08-24T19:59:54.989Z,33.00
2022-08-24T20:05:15.249Z,32.90
2022-08-24T20:10:35.290Z,32.90
2022-08-24T20:15:55.578Z,32.80
2022-08-24T20:21:15.784Z,32.80
2022-08-24T20:26:35.932Z,32.90
2022-08-24T20:31:56.168Z,32.90
2022-08-24T20:37:17.355Z,32.80
2022-08-24T20:42:37.552Z,33.00
2022-08-24T20:47:57.944Z,33.20
2022-08-24T20:53:18.571Z,33.10
2022-08-24T20:58:38.732Z,33.10
2022-08-24T21:04:04.217Z,33.20
2022-08-24T21:09:24.933Z,33.20
2022-08-24T21:14:45.298Z,33.30
2022-08-24T21:20:05.358Z,33.40
2022-08-24T21:25:25.571Z,33.50
2022-08-24T21:30:45.811Z,33.70
2022-08-24T21:36:05.976Z,33.70
2022-08-24T21:41:27.522Z,33.80
2022-08-24T21:46:47.712Z,34.00
2022-08-24T21:52:07.714Z,34.00
2022-08-24T21:57:27.876Z,34.20
2022-08-24T22:02:47.967Z,33.80
2022-08-24T22:08:08.253Z,33.70
2022-08-24T22:13:28.428Z,34.20
2022-08-24T22:18:48.689Z,34.30
2022-08-24T22:24:08.821Z,35.00
2022-08-24T22:29:28.838Z,35.60
2022-08-24T22:34:48.940Z,36.10
2022-08-24T22:40:10.291Z,36.30
2022-08-24T22:45:32.774Z,35.90
2022-08-24T22:50:52.925Z,35.60
2022-08-24T22:56:13.031Z,35.50
2022-08-24T23:01:33.162Z,35.40
2022-08-24T23:06:53.276Z,35.40
2022-08-24T23:17:58.107Z,35.60
2022-08-24T23:23:18.162Z,35.40
2022-08-24T23:28:38.388Z,35.10
2022-08-24T23:33:58.469Z,35.10
2022-08-24T23:39:18.792Z,35.10
2022-08-24T23:44:38.839Z,35.00
2022-08-24T23:49:59.002Z,34.90
2022-08-24T23:55:21.673Z,35.00
